Time;durP1;ratioP1;P1;durP2;ratioP2;P2;SDS_P1;SDS_P2;PMS_P1;PMS_P2;Temp;Humidity;BMP_temperature;BMP_pressure;BME280_temperature;BME280_humidity;BME280_pressure;Samples;Min_cycle;Max_cycle;Signal;HPM_P1;HPM_P2
2021/12/30 00:00:55;;;;;;;0.55;0.40;;;;;;;14.38;92.08;98455.38;5015110;27;102667;-73
2021/12/30 00:03:27;;;;;;;1.40;0.50;;;;;;;14.35;91.83;98459.16;5017615;27;102669;-73
2021/12/30 00:05:56;;;;;;;1.20;0.60;;;;;;;14.25;92.15;98458.28;5017460;28;104010;-73
2021/12/30 00:08:24;;;;;;;1.00;0.40;;;;;;;14.49;91.26;98463.19;5013243;28;103229;-73
2021/12/30 00:10:53;;;;;;;1.63;0.50;;;;;;;14.28;91.62;98479.25;5017845;27;102793;-73
2021/12/30 00:13:21;;;;;;;0.60;0.47;;;;;;;14.25;91.72;98491.97;5010845;27;102777;-72
2021/12/30 00:15:50;;;;;;;1.13;0.60;;;;;;;14.34;90.82;98492.00;5014774;28;103765;-72
2021/12/30 00:18:19;;;;;;;1.00;0.52;;;;;;;14.44;90.35;98497.34;5017419;28;103248;-72
2021/12/30 00:20:49;;;;;;;0.88;0.60;;;;;;;14.05;91.73;98507.06;5020143;27;102615;-72
2021/12/30 00:23:20;;;;;;;0.98;0.57;;;;;;;14.34;90.13;98525.75;5016473;28;103953;-73
2021/12/30 00:25:48;;;;;;;1.45;0.70;;;;;;;14.13;90.44;98531.13;5016560;27;103845;-73
2021/12/30 00:28:21;;;;;;;0.95;0.70;;;;;;;14.17;90.94;98529.03;5004137;28;104130;-73
2021/12/30 00:30:50;;;;;;;1.73;0.80;;;;;;;14.37;89.88;98544.06;5003763;28;102738;-73
2021/12/30 00:33:20;;;;;;;1.70;0.80;;;;;;;14.30;90.07;98541.06;5017838;27;103885;-73
2021/12/30 00:35:53;;;;;;;1.85;0.73;;;;;;;14.12;90.62;98550.69;5014617;28;104150;-73
2021/12/30 00:38:21;;;;;;;1.60;0.90;;;;;;;14.21;90.36;98549.88;4999996;28;104408;-72
2021/12/30 00:40:49;;;;;;;1.75;0.88;;;;;;;14.19;90.28;98551.81;5016898;27;102924;-73
2021/12/30 00:43:20;;;;;;;1.65;0.80;;;;;;;14.25;89.81;98545.13;5002552;28;102807;-73
2021/12/30 00:45:48;;;;;;;1.80;0.70;;;;;;;14.33;89.58;98554.13;5017344;27;103729;-74
2021/12/30 00:48:16;;;;;;;1.50;0.80;;;;;;;14.06;90.50;98550.41;5014738;27;103266;-72
2021/12/30 00:50:47;;;;;;;1.67;0.80;;;;;;;14.18;89.64;98536.84;5017175;28;102699;-72
2021/12/30 00:53:16;;;;;;;2.05;1.02;;;;;;;14.12;89.88;98540.06;5019970;27;103846;-72
2021/12/30 00:55:45;;;;;;;2.47;1.00;;;;;;;14.16;89.77;98546.78;5013767;28;103999;-72
2021/12/30 00:58:14;;;;;;;1.98;0.82;;;;;;;14.38;88.53;98551.03;5020317;27;103650;-72
2021/12/30 01:00:43;;;;;;;2.05;0.98;;;;;;;14.09;89.66;98556.25;5008240;28;102744;-72
2021/12/30 01:03:12;;;;;;;1.73;1.00;;;;;;;14.17;89.46;98551.13;5007411;28;102682;-72
2021/12/30 01:05:41;;;;;;;1.05;0.82;;;;;;;14.20;88.97;98555.31;5007928;28;104125;-72
2021/12/30 01:08:09;;;;;;;2.30;0.98;;;;;;;14.03;89.92;98556.81;5007907;28;103178;-72
2021/12/30 01:10:39;;;;;;;2.35;0.98;;;;;;;14.14;89.31;98562.03;5018370;27;102581;-72
2021/12/30 01:13:15;;;;;;;2.15;0.90;;;;;;;14.04;89.42;98566.47;5017027;27;104079;-72
2021/12/30 01:15:56;;;;;;;1.40;0.90;;;;;;;14.05;89.50;98575.28;5012809;28;103313;-72
2021/12/30 01:18:37;;;;;;;2.67;1.00;;;;;;;13.95;89.65;98583.19;5003550;28;104365;-72
2021/12/30 01:21:06;;;;;;;0.90;0.60;;;;;;;14.05;89.56;98577.94;5015729;27;102702;-73
2021/12/30 01:23:35;;;;;;;1.27;0.80;;;;;;;14.14;88.80;98572.66;5016091;27;102630;-72
2021/12/30 01:26:05;;;;;;;1.60;0.80;;;;;;;13.96;89.80;98576.91;5019392;28;104012;-72
2021/12/30 01:28:33;;;;;;;1.58;1.00;;;;;;;14.03;89.10;98583.38;5011416;28;104132;-73
2021/12/30 01:31:02;;;;;;;1.42;0.85;;;;;;;13.98;89.65;98580.28;5019756;27;102621;-72
2021/12/30 01:33:30;;;;;;;1.25;0.63;;;;;;;14.04;89.14;98595.69;5019706;28;102847;-72
2021/12/30 01:35:58;;;;;;;1.67;0.80;;;;;;;14.03;88.66;98599.31;5018772;27;103283;-73
2021/12/30 01:38:26;;;;;;;1.50;0.90;;;;;;;14.11;88.43;98596.84;5019991;27;103264;-72
2021/12/30 01:40:59;;;;;;;1.52;0.90;;;;;;;14.17;87.97;98585.66;5018984;28;102544;-72
2021/12/30 01:43:30;;;;;;;1.42;0.82;;;;;;;13.99;88.42;98602.38;5018541;28;104083;-73
2021/12/30 01:45:58;;;;;;;1.90;0.90;;;;;;;14.24;87.32;98597.41;5010187;28;104297;-72
2021/12/30 01:48:26;;;;;;;2.03;1.00;;;;;;;14.08;88.12;98614.84;5018051;28;103518;-72
2021/12/30 01:50:54;;;;;;;1.48;0.80;;;;;;;14.11;87.88;98622.56;5020299;27;102788;-72
2021/12/30 01:53:22;;;;;;;1.40;0.80;;;;;;;14.12;88.28;98625.06;5025177;27;103933;-72
2021/12/30 01:55:51;;;;;;;2.03;0.90;;;;;;;14.08;87.95;98630.78;5017850;27;103649;-72
2021/12/30 01:58:22;;;;;;;2.15;0.90;;;;;;;14.13;87.50;98636.53;5007335;28;104175;-72
2021/12/30 02:00:52;;;;;;;1.45;0.90;;;;;;;14.07;87.87;98643.22;5016823;27;102744;-72
2021/12/30 02:03:21;;;;;;;2.17;1.20;;;;;;;13.78;88.96;98647.59;5021779;27;102730;-72
2021/12/30 02:05:53;;;;;;;2.43;0.93;;;;;;;13.79;89.06;98646.59;5018456;27;103383;-72
2021/12/30 02:08:21;;;;;;;2.07;1.07;;;;;;;13.89;88.62;98652.81;5006940;28;104394;-71
2021/12/30 02:10:51;;;;;;;1.40;0.70;;;;;;;14.11;87.93;98655.28;5017408;27;103166;-72
2021/12/30 02:13:20;;;;;;;3.58;1.20;;;;;;;13.82;88.73;98659.59;5015866;28;102702;-72
2021/12/30 02:15:50;;;;;;;2.63;1.05;;;;;;;13.93;88.39;98665.69;5010320;28;104354;-72
2021/12/30 02:18:19;;;;;;;1.93;0.97;;;;;;;13.76;88.58;98670.75;5016196;28;103148;-72
2021/12/30 02:20:54;;;;;;;1.90;0.90;;;;;;;13.82;88.62;98671.06;5022645;27;103050;-72
2021/12/30 02:23:24;;;;;;;3.80;1.10;;;;;;;14.05;87.49;98681.53;5020911;27;103958;-72
2021/12/30 02:25:57;;;;;;;1.55;0.90;;;;;;;14.11;87.45;98676.53;5019498;27;103288;-72
2021/12/30 02:28:28;;;;;;;1.88;0.80;;;;;;;14.25;86.88;98677.97;5020888;27;103295;-72
2021/12/30 02:30:58;;;;;;;2.20;0.95;;;;;;;14.12;87.01;98678.19;5019121;27;102839;-73
2021/12/30 02:33:27;;;;;;;2.07;1.20;;;;;;;13.91;88.04;98683.56;5021452;27;102736;-72
2021/12/30 02:35:57;;;;;;;1.60;0.90;;;;;;;14.11;87.09;98676.53;5019204;27;103448;-72
2021/12/30 02:38:25;;;;;;;1.75;0.80;;;;;;;14.10;87.29;98690.78;5019793;27;103330;-72
2021/12/30 02:40:57;;;;;;;1.87;0.93;;;;;;;14.09;87.30;98694.38;5006824;28;102951;-72
2021/12/30 02:43:27;;;;;;;1.92;0.85;;;;;;;14.16;86.80;98684.94;5017362;27;103548;-72
2021/12/30 02:45:56;;;;;;;2.80;1.00;;;;;;;14.08;87.52;98691.88;5016829;28;104348;-72
2021/12/30 02:48:26;;;;;;;2.10;0.82;;;;;;;13.97;88.19;98698.13;5019944;27;103188;-72
2021/12/30 02:50:58;;;;;;;2.28;0.80;;;;;;;14.03;88.15;98702.91;5020445;27;102674;-72
2021/12/30 02:53:27;;;;;;;2.17;0.80;;;;;;;14.07;88.38;98704.31;5015786;27;102728;-72
2021/12/30 02:55:56;;;;;;;1.20;0.70;;;;;;;14.03;88.72;98696.75;5008249;28;104353;-72
2021/12/30 02:58:27;;;;;;;2.40;1.08;;;;;;;14.10;88.21;98704.06;5019236;27;103165;-72
2021/12/30 03:01:00;;;;;;;1.70;0.77;;;;;;;14.13;87.94;98710.91;5004685;28;102672;-72
2021/12/30 03:03:29;;;;;;;1.33;0.70;;;;;;;14.23;88.16;98717.13;5026091;27;103033;-72
2021/12/30 03:06:00;;;;;;;1.57;0.70;;;;;;;14.18;88.63;98708.69;5017816;27;103659;-72
2021/12/30 03:08:29;;;;;;;1.33;0.70;;;;;;;14.24;88.81;98724.97;5019925;27;103178;-72
2021/12/30 03:10:57;;;;;;;2.70;0.80;;;;;;;14.06;89.71;98721.25;5020436;27;102968;-72
2021/12/30 03:13:30;;;;;;;1.20;0.60;;;;;;;14.18;89.85;98725.50;5019626;28;103800;-72
2021/12/30 03:16:02;;;;;;;1.45;0.60;;;;;;;14.11;91.09;98727.00;5013029;28;103345;-72
2021/12/30 03:18:32;;;;;;;0.83;0.60;;;;;;;14.29;91.05;98721.88;5020292;27;103423;-72
2021/12/30 03:21:03;;;;;;;2.00;0.75;;;;;;;14.28;90.50;98723.72;5005468;28;103282;-72
2021/12/30 03:23:32;;;;;;;1.08;0.60;;;;;;;14.40;90.39;98725.34;5020558;27;104543;-72
2021/12/30 03:26:00;;;;;;;1.25;0.70;;;;;;;14.57;88.78;98726.50;5009672;28;103635;-72
2021/12/30 03:28:30;;;;;;;1.13;0.60;;;;;;;14.45;89.30;98732.94;5012908;28;103214;-72
2021/12/30 03:30:59;;;;;;;0.80;0.50;;;;;;;14.40;89.79;98741.28;5018932;27;103020;-72
2021/12/30 03:33:28;;;;;;;1.33;0.70;;;;;;;14.27;90.54;98735.31;5020513;27;102743;-72
2021/12/30 03:35:59;;;;;;;2.00;0.60;;;;;;;14.27;89.72;98740.63;5017467;27;103856;-72
2021/12/30 03:38:29;;;;;;;0.97;0.50;;;;;;;14.34;89.65;98741.81;4998207;28;103225;-72
2021/12/30 03:40:57;;;;;;;1.20;0.60;;;;;;;14.20;90.57;98747.47;5015009;28;102880;-72
2021/12/30 03:43:25;;;;;;;0.80;0.60;;;;;;;14.56;89.39;98747.94;5014311;28;102740;-72
2021/12/30 03:45:53;;;;;;;0.60;0.50;;;;;;;14.79;87.87;98746.75;5017426;27;104281;-72
2021/12/30 03:48:22;;;;;;;1.02;0.60;;;;;;;14.50;88.99;98752.81;5013942;28;103231;-72
2021/12/30 03:50:52;;;;;;;1.00;0.50;;;;;;;14.76;88.08;98747.88;5005618;28;104015;-72
2021/12/30 03:53:20;;;;;;;0.98;0.50;;;;;;;14.82;87.85;98754.47;5011545;28;102753;-72
2021/12/30 03:55:51;;;;;;;1.07;0.57;;;;;;;14.72;88.10;98756.22;5015672;28;103253;-72
2021/12/30 03:58:19;;;;;;;0.65;0.55;;;;;;;14.71;88.14;98749.25;5019738;27;103260;-72
2021/12/30 04:00:48;;;;;;;1.00;0.50;;;;;;;14.80;88.13;98759.06;5014091;27;102569;-72
2021/12/30 04:03:16;;;;;;;0.85;0.50;;;;;;;14.62;89.48;98758.03;5015632;27;104240;-72
2021/12/30 04:05:46;;;;;;;0.60;0.50;;;;;;;14.73;88.91;98763.25;5013972;28;103250;-72
2021/12/30 04:08:13;;;;;;;0.60;0.50;;;;;;;15.00;87.45;98768.75;5004574;28;103823;-72
2021/12/30 04:10:41;;;;;;;0.50;0.50;;;;;;;15.07;86.49;98772.56;5017682;28;102696;-72
2021/12/30 04:13:11;;;;;;;1.50;0.80;;;;;;;14.97;86.21;98779.69;5019938;27;102647;-72
2021/12/30 04:15:39;;;;;;;0.90;0.50;;;;;;;14.95;86.43;98774.50;5000567;28;103289;-72
2021/12/30 04:18:07;;;;;;;1.30;0.60;;;;;;;14.80;86.41;98775.84;5016303;27;103190;-72
2021/12/30 04:20:36;;;;;;;0.73;0.40;;;;;;;14.95;86.77;98785.16;5005741;28;102743;-72
2021/12/30 04:23:04;;;;;;;0.63;0.50;;;;;;;14.95;86.89;98782.50;5012368;27;102653;-72
2021/12/30 04:25:32;;;;;;;1.50;0.63;;;;;;;14.74;87.64;98787.03;5009474;28;104286;-72
2021/12/30 04:28:00;;;;;;;0.47;0.45;;;;;;;15.00;87.34;98792.72;5020417;27;103257;-72
2021/12/30 04:30:29;;;;;;;0.90;0.50;;;;;;;14.91;88.38;98794.38;5017783;28;102933;-71
2021/12/30 04:32:57;;;;;;;1.02;0.50;;;;;;;14.83;87.78;98782.72;5020371;27;102691;-72
2021/12/30 04:35:31;;;;;;;1.92;0.68;;;;;;;14.59;89.61;98792.84;5007857;28;103224;-72
2021/12/30 04:37:59;;;;;;;1.00;0.50;;;;;;;14.83;89.46;98796.84;5016889;28;103315;-72
2021/12/30 04:40:28;;;;;;;0.50;0.40;;;;;;;14.82;89.66;98802.34;5018787;27;102713;-72
2021/12/30 04:42:56;;;;;;;0.85;0.50;;;;;;;14.80;89.71;98806.91;5019652;27;103844;-71
2021/12/30 04:45:26;;;;;;;0.35;0.32;;;;;;;14.91;89.88;98814.78;5002631;28;104495;-71
2021/12/30 04:47:57;;;;;;;0.70;0.40;;;;;;;14.99;89.41;98809.63;5018859;27;103234;-71
2021/12/30 04:50:26;;;;;;;0.40;0.40;;;;;;;15.02;89.06;98812.03;5020380;27;102724;-72
2021/12/30 04:52:54;;;;;;;1.17;0.52;;;;;;;15.03;89.15;98816.38;5010869;28;102723;-71
2021/12/30 04:55:22;;;;;;;0.60;0.60;;;;;;;14.93;88.94;98819.00;5011998;28;104327;-71
2021/12/30 04:57:52;;;;;;;0.65;0.50;;;;;;;15.02;89.44;98814.69;5016578;27;103225;-71
2021/12/30 05:00:20;;;;;;;1.70;0.60;;;;;;;14.90;90.56;98815.78;5010571;28;102921;-71
2021/12/30 05:03:07;;;;;;;1.50;0.57;;;;;;;14.67;90.85;98824.94;5015196;27;104018;-71
2021/12/30 05:05:43;;;;;;;0.50;0.40;;;;;;;14.81;91.58;98832.56;5017814;28;103638;-71
2021/12/30 05:08:13;;;;;;;0.90;0.50;;;;;;;14.95;90.17;98826.88;5014205;28;104088;-71
2021/12/30 05:10:41;;;;;;;0.60;0.40;;;;;;;14.90;89.34;98827.28;5017609;27;102699;-71
2021/12/30 05:13:10;;;;;;;0.80;0.60;;;;;;;14.90;89.94;98823.78;5017036;27;104178;-71
2021/12/30 05:15:39;;;;;;;1.25;0.50;;;;;;;14.91;90.39;98812.97;5016940;27;104160;-72
2021/12/30 05:18:09;;;;;;;1.70;0.60;;;;;;;14.91;89.74;98822.78;5010511;28;104351;-69
2021/12/30 05:20:39;;;;;;;0.88;0.50;;;;;;;14.95;89.96;98818.88;5017552;28;102663;-69
2021/12/30 05:23:10;;;;;;;0.88;0.57;;;;;;;14.82;89.79;98829.75;5018334;27;103789;-69
2021/12/30 05:25:38;;;;;;;1.40;0.68;;;;;;;14.56;91.96;98836.50;5004960;28;104462;-69
2021/12/30 05:28:06;;;;;;;0.55;0.55;;;;;;;14.66;92.28;98836.53;5017926;28;103209;-69
2021/12/30 05:30:36;;;;;;;0.60;0.50;;;;;;;14.79;91.18;98837.97;5011091;28;102870;-69
2021/12/30 05:33:05;;;;;;;1.17;0.53;;;;;;;14.82;90.36;98837.72;5017072;27;102963;-70
2021/12/30 05:35:33;;;;;;;0.75;0.50;;;;;;;14.88;90.15;98841.66;5016972;28;103910;-68
2021/12/30 05:38:04;;;;;;;0.75;0.52;;;;;;;14.86;90.11;98844.47;5015707;27;103191;-71
2021/12/30 05:40:34;;;;;;;1.52;0.68;;;;;;;14.84;89.68;98840.25;5005783;28;102719;-72
2021/12/30 05:43:02;;;;;;;0.73;0.47;;;;;;;14.89;89.61;98843.34;5015305;27;104136;-71
2021/12/30 05:45:30;;;;;;;0.47;0.47;;;;;;;14.91;89.25;98846.72;5017092;27;103722;-71
2021/12/30 05:47:58;;;;;;;1.35;0.57;;;;;;;14.59;90.38;98851.34;5014468;28;103793;-71
2021/12/30 05:50:31;;;;;;;0.55;0.40;;;;;;;14.63;90.94;98860.72;5014875;28;102739;-71
2021/12/30 05:52:59;;;;;;;0.57;0.40;;;;;;;14.67;91.21;98860.34;5014640;28;104093;-71
2021/12/30 05:55:29;;;;;;;1.77;0.63;;;;;;;14.67;91.26;98865.66;5004354;28;104030;-71
2021/12/30 05:57:59;;;;;;;1.10;0.50;;;;;;;14.41;92.25;98870.56;5016120;27;103664;-70
2021/12/30 06:00:32;;;;;;;0.50;0.50;;;;;;;14.29;92.97;98871.56;5015847;28;102705;-70
2021/12/30 06:03:00;;;;;;;0.35;0.35;;;;;;;14.30;94.44;98869.75;5014347;28;102689;-70
2021/12/30 06:05:29;;;;;;;0.52;0.43;;;;;;;14.64;92.41;98870.41;5004891;28;104211;-70
2021/12/30 06:07:57;;;;;;;0.70;0.40;;;;;;;14.69;91.65;98873.50;5017181;27;103201;-70
2021/12/30 06:10:25;;;;;;;1.08;0.32;;;;;;;14.72;91.06;98875.91;5011340;28;102644;-70
2021/12/30 06:12:53;;;;;;;0.90;0.50;;;;;;;14.73;91.62;98883.75;5021653;27;102717;-69
2021/12/30 06:15:25;;;;;;;0.77;0.47;;;;;;;14.80;91.04;98878.72;5018330;27;103469;-69
2021/12/30 06:17:56;;;;;;;0.40;0.40;;;;;;;14.74;92.77;98892.56;5020300;27;103216;-70
2021/12/30 06:20:24;;;;;;;0.90;0.50;;;;;;;14.69;92.10;98895.63;5013403;27;103653;-70
2021/12/30 06:22:52;;;;;;;0.70;0.40;;;;;;;14.51;93.48;98887.38;5009570;27;103977;-70
2021/12/30 06:25:21;;;;;;;0.70;0.50;;;;;;;14.61;93.71;98886.63;5005323;28;104395;-69
2021/12/30 06:27:49;;;;;;;1.00;0.50;;;;;;;14.67;92.61;98881.63;5020556;28;103283;-70
2021/12/30 06:30:17;;;;;;;0.82;0.52;;;;;;;14.73;92.53;98888.22;5010843;28;102658;-70
2021/12/30 06:32:50;;;;;;;0.82;0.60;;;;;;;14.74;92.66;98884.56;5020577;27;102606;-70
2021/12/30 06:35:19;;;;;;;0.60;0.60;;;;;;;14.47;92.65;98891.31;5019541;27;103672;-71
2021/12/30 06:37:47;;;;;;;0.60;0.47;;;;;;;14.50;95.36;98895.50;5021908;27;103020;-70
2021/12/30 06:40:16;;;;;;;0.70;0.60;;;;;;;14.68;94.03;98903.75;4998634;28;102724;-70
2021/12/30 06:42:45;;;;;;;0.50;0.50;;;;;;;14.79;93.07;98906.31;5020954;27;103066;-70
2021/12/30 06:45:13;;;;;;;0.60;0.50;;;;;;;14.79;92.67;98907.13;5016322;27;103674;-71
2021/12/30 06:47:44;;;;;;;0.40;0.40;;;;;;;14.76;92.77;98911.91;5014476;28;103190;-70
2021/12/30 06:50:14;;;;;;;0.40;0.40;;;;;;;14.72;92.72;98916.63;5020204;27;102544;-71
2021/12/30 06:52:46;;;;;;;0.73;0.60;;;;;;;14.77;92.39;98918.88;5016921;27;103542;-70
2021/12/30 06:55:14;;;;;;;2.45;2.25;;;;;;;14.64;93.36;98918.25;5009748;28;103287;-68
2021/12/30 06:57:44;;;;;;;2.85;2.63;;;;;;;14.47;92.77;98925.84;5019768;27;103178;-67
2021/12/30 07:00:13;;;;;;;2.40;2.20;;;;;;;14.29;96.67;98919.38;5017893;27;102636;-67
2021/12/30 07:02:44;;;;;;;2.20;2.10;;;;;;;14.30;96.85;98921.09;5020527;27;102940;-75
2021/12/30 07:05:14;;;;;;;1.80;1.40;;;;;;;14.51;95.68;98916.63;5012096;27;103081;-75
2021/12/30 07:07:43;;;;;;;2.22;2.03;;;;;;;14.28;95.67;98920.38;5016871;28;103262;-74
2021/12/30 07:10:12;;;;;;;1.90;1.70;;;;;;;14.44;95.03;98927.94;5016199;27;102594;-74
2021/12/30 07:12:40;;;;;;;2.17;2.08;;;;;;;14.20;97.42;98936.13;5013247;28;103986;-75
2021/12/30 07:15:09;;;;;;;1.90;1.40;;;;;;;14.22;97.46;98935.97;5009884;28;104278;-74
2021/12/30 07:17:38;;;;;;;1.80;1.70;;;;;;;14.11;96.75;98947.50;5008798;27;103717;-75
2021/12/30 07:20:07;;;;;;;1.57;1.47;;;;;;;14.24;98.01;98961.44;5016658;28;102655;-74
2021/12/30 07:22:36;;;;;;;1.50;1.40;;;;;;;14.40;96.78;98961.03;5018465;27;102928;-75
2021/12/30 07:25:16;;;;;;;1.40;1.30;;;;;;;14.37;96.42;98948.84;5008411;28;104266;-74
2021/12/30 07:27:45;;;;;;;1.02;1.00;;;;;;;14.34;97.68;98958.91;5018708;28;103228;-75
2021/12/30 07:30:14;;;;;;;0.80;0.80;;;;;;;14.59;96.58;98960.34;5015742;27;102677;-74
2021/12/30 07:32:42;;;;;;;1.00;0.90;;;;;;;14.68;94.76;98970.22;5016552;27;103662;-75
2021/12/30 07:35:13;;;;;;;1.50;0.98;;;;;;;14.48;95.66;98966.59;5014852;28;103879;-75
2021/12/30 07:37:43;;;;;;;1.10;1.00;;;;;;;14.57;95.82;98964.97;5018864;27;103218;-74
2021/12/30 07:40:11;;;;;;;0.90;0.90;;;;;;;14.63;95.97;98967.94;5016577;27;102626;-75
2021/12/30 07:42:40;;;;;;;1.67;0.95;;;;;;;14.66;95.23;98974.81;5021044;27;102975;-75
2021/12/30 07:45:11;;;;;;;0.60;0.60;;;;;;;14.74;95.57;98980.31;5018856;28;103677;-74
2021/12/30 07:47:41;;;;;;;1.00;0.80;;;;;;;14.80;94.84;98982.44;5014954;28;103310;-75
2021/12/30 07:50:11;;;;;;;0.80;0.70;;;;;;;14.69;95.02;98990.50;5012954;28;102658;-75
2021/12/30 07:52:40;;;;;;;1.15;0.80;;;;;;;14.77;95.02;98988.03;5014075;28;104134;-75
2021/12/30 07:55:13;;;;;;;0.70;0.70;;;;;;;14.51;95.25;98988.41;5018428;28;103353;-75
2021/12/30 07:57:42;;;;;;;1.40;0.60;;;;;;;14.30;99.24;98989.34;5018168;28;103252;-75
2021/12/30 08:00:13;;;;;;;1.13;0.80;;;;;;;14.41;98.23;98992.81;5019018;28;102984;-75
2021/12/30 08:02:44;;;;;;;0.90;0.77;;;;;;;14.37;97.62;98993.22;5012765;28;104171;-75
2021/12/30 08:05:14;;;;;;;0.63;0.60;;;;;;;14.55;98.27;98993.47;5020355;27;103229;-75
2021/12/30 08:07:42;;;;;;;1.40;0.70;;;;;;;14.63;97.06;98991.84;5016752;28;103182;-75
2021/12/30 08:10:15;;;;;;;0.65;0.65;;;;;;;14.71;96.52;98991.25;5022457;27;102590;-74
2021/12/30 08:12:45;;;;;;;0.90;0.52;;;;;;;14.41;98.70;98995.47;5020181;27;103884;-74
2021/12/30 08:15:15;;;;;;;0.60;0.50;;;;;;;14.14;100.00;98995.09;5008370;28;105213;-74
2021/12/30 08:17:44;;;;;;;0.32;0.30;;;;;;;14.49;99.55;98985.03;5012668;28;103217;-75
2021/12/30 08:20:14;;;;;;;0.60;0.40;;;;;;;14.52;98.87;98999.91;5003205;28;102877;-75
2021/12/30 08:22:42;;;;;;;0.40;0.40;;;;;;;14.45;98.99;99004.91;5009260;28;102820;-75
2021/12/30 08:25:12;;;;;;;0.70;0.50;;;;;;;14.47;99.50;99000.28;4997489;27;104307;-74
2021/12/30 08:27:42;;;;;;;0.60;0.50;;;;;;;14.68;97.86;99004.78;5006746;28;103171;-74
2021/12/30 08:30:13;;;;;;;0.60;0.35;;;;;;;14.77;98.07;99004.84;5007152;28;103213;-75
2021/12/30 08:32:42;;;;;;;0.50;0.40;;;;;;;14.86;96.89;98998.75;5005443;28;104099;-75
2021/12/30 08:35:14;;;;;;;1.23;0.43;;;;;;;14.70;96.76;99000.19;5007498;28;104140;-74
2021/12/30 08:37:43;;;;;;;0.52;0.45;;;;;;;14.83;97.25;99006.97;5005180;28;103086;-75
2021/12/30 08:40:12;;;;;;;0.60;0.47;;;;;;;15.09;96.52;99004.75;5006719;28;102783;-74
2021/12/30 08:42:45;;;;;;;0.52;0.47;;;;;;;15.03;94.85;98991.97;5007797;28;102735;-75
2021/12/30 08:45:14;;;;;;;0.52;0.50;;;;;;;15.10;94.87;98999.28;5006161;28;103295;-75
2021/12/30 08:47:43;;;;;;;0.40;0.40;;;;;;;15.13;94.75;99000.84;5013222;28;103187;-75
2021/12/30 08:50:14;;;;;;;0.73;0.50;;;;;;;14.94;94.39;99001.59;5007613;28;102838;-75
2021/12/30 08:52:43;;;;;;;0.40;0.40;;;;;;;15.15;94.58;99003.41;5004737;28;103945;-76
2021/12/30 08:55:14;;;;;;;0.65;0.43;;;;;;;15.33;93.88;99002.63;5007350;28;103278;-75
2021/12/30 08:57:44;;;;;;;0.73;0.50;;;;;;;15.48;93.57;99004.00;5006625;28;103377;-75
2021/12/30 09:00:16;;;;;;;0.63;0.60;;;;;;;15.70;92.39;99004.75;5013172;28;102657;-74
2021/12/30 09:02:44;;;;;;;1.48;0.85;;;;;;;15.71;92.07;99004.66;5016435;27;102989;-75
2021/12/30 09:05:13;;;;;;;2.80;2.13;;;;;;;15.77;91.54;99012.09;5004319;28;104261;-76
2021/12/30 09:07:42;;;;;;;1.80;1.70;;;;;;;15.83;91.60;99010.72;5015622;27;103434;-76
2021/12/30 09:10:11;;;;;;;1.60;1.50;;;;;;;15.87;91.62;99014.78;5005853;28;102734;-76
2021/12/30 09:12:43;;;;;;;1.40;1.27;;;;;;;16.19;91.27;99016.25;5012333;28;104139;-75
2021/12/30 09:15:22;;;;;;;2.45;1.70;;;;;;;16.26;89.59;99011.19;5010381;28;104109;-76
2021/12/30 09:17:53;;;;;;;1.50;1.23;;;;;;;15.96;90.86;99008.63;5009972;28;103204;-75
2021/12/30 09:20:22;;;;;;;0.82;0.75;;;;;;;15.90;91.16;99009.19;5008761;28;104501;-76
2021/12/30 09:22:50;;;;;;;0.60;0.57;;;;;;;15.60;92.56;99000.28;5007845;28;102709;-77
2021/12/30 09:25:22;;;;;;;1.00;0.60;;;;;;;15.36;92.85;98999.72;5007681;28;104287;-76
2021/12/30 09:27:50;;;;;;;1.00;0.60;;;;;;;15.65;91.36;98998.03;5009916;28;103179;-77
2021/12/30 09:30:21;;;;;;;0.80;0.52;;;;;;;15.71;91.48;99003.81;5009578;28;102695;-76
2021/12/30 09:32:50;;;;;;;1.33;0.70;;;;;;;15.86;90.70;99010.44;5011374;28;102655;-77
2021/12/30 09:35:18;;;;;;;0.60;0.50;;;;;;;16.24;89.51;99010.50;5008520;28;103989;-76
2021/12/30 09:37:46;;;;;;;1.20;0.40;;;;;;;15.89;90.22;99021.66;5007757;28;103946;-76
2021/12/30 09:40:17;;;;;;;1.10;0.47;;;;;;;15.80;90.66;99024.31;5008516;27;102835;-75
2021/12/30 09:42:48;;;;;;;0.80;0.40;;;;;;;16.11;89.13;99034.75;5012274;27;104182;-74
2021/12/30 09:45:17;;;;;;;0.65;0.50;;;;;;;16.00;89.89;99031.38;5010282;27;103847;-75
2021/12/30 09:47:50;;;;;;;1.00;0.50;;;;;;;15.96;90.27;99032.63;5019203;27;103299;-75
2021/12/30 09:50:19;;;;;;;0.60;0.60;;;;;;;15.90;90.85;99034.00;5021142;27;102681;-75
2021/12/30 09:52:47;;;;;;;1.20;0.60;;;;;;;15.90;90.27;99027.81;5004876;28;102740;-75
2021/12/30 09:55:15;;;;;;;0.57;0.50;;;;;;;16.25;90.00;99033.53;5011695;27;104163;-75
2021/12/30 09:57:43;;;;;;;0.60;0.50;;;;;;;16.45;88.12;99029.06;5009095;28;104193;-76
2021/12/30 10:00:14;;;;;;;0.65;0.60;;;;;;;16.58;88.22;99030.47;5010034;28;104405;-75
2021/12/30 10:02:44;;;;;;;0.60;0.60;;;;;;;16.71;87.42;99031.03;5011005;27;102713;-76
2021/12/30 10:05:16;;;;;;;1.52;0.95;;;;;;;16.47;88.09;99025.25;5015741;27;104385;-75
2021/12/30 10:07:45;;;;;;;1.85;1.75;;;;;;;16.88;87.79;99032.13;5019866;28;103008;-75
2021/12/30 10:10:31;;;;;;;1.23;1.10;;;;;;;17.02;86.19;99039.72;5011980;28;102760;-76
2021/12/30 10:13:02;;;;;;;1.08;0.85;;;;;;;16.64;87.47;99029.94;5010056;28;104441;-76
2021/12/30 10:15:42;;;;;;;1.10;1.00;;;;;;;16.73;87.01;99034.38;5014661;27;103261;-76
2021/12/30 10:18:11;;;;;;;0.50;0.50;;;;;;;16.73;86.62;99039.72;5014923;28;103048;-75
2021/12/30 10:20:42;;;;;;;1.20;0.47;;;;;;;16.73;85.76;99045.06;5015465;28;102801;-76
2021/12/30 10:23:13;;;;;;;0.50;0.50;;;;;;;16.76;86.92;99050.13;5016433;27;103558;-76
2021/12/30 10:25:43;;;;;;;0.70;0.40;;;;;;;16.97;86.46;99051.78;5014924;28;103351;-75
2021/12/30 10:28:35;;;;;;;0.85;0.73;;;;;;;16.66;86.25;99049.28;4996326;28;103270;-75
2021/12/30 10:31:18;;;;;;;0.67;0.50;;;;;;;16.61;87.06;99056.03;5008211;27;102881;-76
2021/12/30 10:33:49;;;;;;;0.65;0.30;;;;;;;17.02;85.55;99049.53;5018828;27;104023;-76
2021/12/30 10:36:22;;;;;;;0.40;0.40;;;;;;;17.21;83.52;99054.84;5017722;28;104493;-76
2021/12/30 10:38:50;;;;;;;1.00;0.50;;;;;;;17.46;83.34;99056.06;5018422;27;103252;-75
2021/12/30 10:41:22;;;;;;;0.68;0.50;;;;;;;17.30;83.47;99052.16;5011458;28;102691;-75
2021/12/30 10:43:57;;;;;;;0.52;0.50;;;;;;;17.49;83.12;99058.44;5020966;27;102839;-75
2021/12/30 10:46:27;;;;;;;0.40;0.40;;;;;;;17.13;85.13;99057.38;5017616;28;103330;-76
2021/12/30 10:49:02;;;;;;;0.50;0.50;;;;;;;17.01;84.12;99064.69;5017754;28;104161;-75
2021/12/30 10:51:41;;;;;;;0.35;0.35;;;;;;;17.30;83.64;99060.16;5017620;27;102685;-75
2021/12/30 10:54:13;;;;;;;0.40;0.40;;;;;;;17.53;82.49;99055.31;5015269;27;102727;-74
2021/12/30 10:56:44;;;;;;;0.98;0.60;;;;;;;17.51;82.80;99062.66;5014897;28;103060;-75
2021/12/30 10:59:19;;;;;;;0.70;0.52;;;;;;;17.35;83.53;99051.69;5018151;28;103182;-75
2021/12/30 11:01:50;;;;;;;0.50;0.50;;;;;;;17.30;83.89;99059.31;5020142;27;102604;-74
2021/12/30 11:04:21;;;;;;;0.57;0.50;;;;;;;17.42;82.89;99058.16;5010924;28;102762;-74
2021/12/30 11:06:56;;;;;;;1.70;1.10;;;;;;;17.47;82.42;99055.91;5018996;28;103993;-74
2021/12/30 11:09:24;;;;;;;1.20;0.90;;;;;;;17.70;82.08;99051.91;5019006;28;103266;-74
2021/12/30 11:11:55;;;;;;;0.65;0.60;;;;;;;17.57;82.30;99053.22;5008855;28;102704;-74
2021/12/30 11:14:25;;;;;;;0.95;0.70;;;;;;;17.57;81.98;99059.41;5005089;28;102924;-73
2021/12/30 11:17:09;;;;;;;0.93;0.70;;;;;;;17.84;81.42;99040.75;5020149;27;103494;-74
2021/12/30 11:19:40;;;;;;;0.60;0.60;;;;;;;18.00;80.45;99048.09;5020402;27;103079;-74
2021/12/30 11:22:13;;;;;;;0.60;0.60;;;;;;;18.01;81.14;99055.13;5021611;27;102683;-74
2021/12/30 11:24:44;;;;;;;0.98;0.60;;;;;;;17.91;81.72;99055.19;5021470;27;103180;-74
2021/12/30 11:27:14;;;;;;;0.77;0.60;;;;;;;17.93;82.59;99049.69;5017475;27;103705;-74
2021/12/30 11:29:46;;;;;;;1.60;0.50;;;;;;;18.06;81.18;99052.00;5024227;27;103189;-73
2021/12/30 11:32:17;;;;;;;0.60;0.47;;;;;;;18.04;80.85;99037.94;5016197;28;102771;-74
2021/12/30 11:34:47;;;;;;;0.70;0.70;;;;;;;17.80;80.40;99050.03;5018466;28;103072;-73
2021/12/30 11:37:17;;;;;;;1.07;0.50;;;;;;;17.77;81.80;99042.31;5013251;28;103484;-73